sensor_id;sensor_type;location;lat;lon;timestamp;P1;durP1;ratioP1;P2;durP2;ratioP2
66761;SDS011;53672;48.176;16.338;2023-03-14T00:03:47;8.90;;;3.33;;
66761;SDS011;53672;48.176;16.338;2023-03-14T00:08:48;8.17;;;3.27;;
66761;SDS011;53672;48.176;16.338;2023-03-14T00:13:50;8.60;;;3.43;;
66761;SDS011;53672;48.176;16.338;2023-03-14T00:18:51;8.60;;;3.90;;
66761;SDS011;53672;48.176;16.338;2023-03-14T00:23:52;8.57;;;3.50;;
66761;SDS011;53672;48.176;16.338;2023-03-14T00:28:54;9.30;;;3.13;;
66761;SDS011;53672;48.176;16.338;2023-03-14T00:33:56;6.20;;;2.77;;
66761;SDS011;53672;48.176;16.338;2023-03-14T00:38:56;10.18;;;3.42;;
66761;SDS011;53672;48.176;16.338;2023-03-14T00:43:58;7.90;;;3.40;;
66761;SDS011;53672;48.176;16.338;2023-03-14T00:48:58;8.20;;;3.10;;
66761;SDS011;53672;48.176;16.338;2023-03-14T00:53:59;8.02;;;3.40;;
66761;SDS011;53672;48.176;16.338;2023-03-14T00:59:01;8.47;;;3.10;;
66761;SDS011;53672;48.176;16.338;2023-03-14T01:04:02;8.98;;;3.10;;
66761;SDS011;53672;48.176;16.338;2023-03-14T01:09:02;8.23;;;3.50;;
66761;SDS011;53672;48.176;16.338;2023-03-14T01:14:04;8.93;;;3.47;;
66761;SDS011;53672;48.176;16.338;2023-03-14T01:19:05;8.05;;;3.63;;
66761;SDS011;53672;48.176;16.338;2023-03-14T01:24:06;9.70;;;3.73;;
66761;SDS011;53672;48.176;16.338;2023-03-14T01:29:08;8.00;;;3.45;;
66761;SDS011;53672;48.176;16.338;2023-03-14T01:34:08;9.27;;;3.77;;
66761;SDS011;53672;48.176;16.338;2023-03-14T01:39:09;9.40;;;4.00;;
66761;SDS011;53672;48.176;16.338;2023-03-14T01:44:11;13.32;;;4.50;;
66761;SDS011;53672;48.176;16.338;2023-03-14T01:49:17;10.98;;;4.88;;
66761;SDS011;53672;48.176;16.338;2023-03-14T01:54:23;9.75;;;4.35;;
66761;SDS011;53672;48.176;16.338;2023-03-14T01:59:29;10.97;;;4.87;;
66761;SDS011;53672;48.176;16.338;2023-03-14T02:04:33;11.43;;;4.70;;
66761;SDS011;53672;48.176;16.338;2023-03-14T02:09:35;11.23;;;4.47;;
66761;SDS011;53672;48.176;16.338;2023-03-14T02:14:37;11.02;;;4.78;;
66761;SDS011;53672;48.176;16.338;2023-03-14T02:19:46;11.52;;;4.38;;
66761;SDS011;53672;48.176;16.338;2023-03-14T02:24:57;10.80;;;4.40;;
66761;SDS011;53672;48.176;16.338;2023-03-14T02:30:06;10.68;;;4.88;;
66761;SDS011;53672;48.176;16.338;2023-03-14T02:35:11;11.65;;;4.53;;
66761;SDS011;53672;48.176;16.338;2023-03-14T02:40:14;13.77;;;4.47;;
66761;SDS011;53672;48.176;16.338;2023-03-14T02:50:40;10.17;;;3.80;;
66761;SDS011;53672;48.176;16.338;2023-03-14T02:55:44;9.07;;;3.80;;
66761;SDS011;53672;48.176;16.338;2023-03-14T03:00:47;10.73;;;4.07;;
66761;SDS011;53672;48.176;16.338;2023-03-14T03:05:48;8.57;;;3.70;;
66761;SDS011;53672;48.176;16.338;2023-03-14T03:10:49;10.05;;;3.90;;
66761;SDS011;53672;48.176;16.338;2023-03-14T03:15:52;8.03;;;3.40;;
66761;SDS011;53672;48.176;16.338;2023-03-14T03:20:52;9.85;;;4.30;;
66761;SDS011;53672;48.176;16.338;2023-03-14T03:25:53;9.70;;;3.73;;
66761;SDS011;53672;48.176;16.338;2023-03-14T03:30:55;9.40;;;3.77;;
66761;SDS011;53672;48.176;16.338;2023-03-14T03:35:55;14.07;;;4.15;;
66761;SDS011;53672;48.176;16.338;2023-03-14T03:40:56;10.63;;;4.17;;
66761;SDS011;53672;48.176;16.338;2023-03-14T03:45:58;11.63;;;3.90;;
66761;SDS011;53672;48.176;16.338;2023-03-14T03:51:02;11.47;;;4.43;;
66761;SDS011;53672;48.176;16.338;2023-03-14T03:56:03;10.40;;;4.10;;
66761;SDS011;53672;48.176;16.338;2023-03-14T04:01:05;9.30;;;4.10;;
66761;SDS011;53672;48.176;16.338;2023-03-14T04:06:07;11.93;;;4.50;;
66761;SDS011;53672;48.176;16.338;2023-03-14T04:11:09;9.18;;;4.32;;
66761;SDS011;53672;48.176;16.338;2023-03-14T04:16:13;10.93;;;4.47;;
66761;SDS011;53672;48.176;16.338;2023-03-14T04:21:16;9.35;;;4.85;;
66761;SDS011;53672;48.176;16.338;2023-03-14T04:26:17;11.43;;;4.50;;
66761;SDS011;53672;48.176;16.338;2023-03-14T04:31:19;9.87;;;4.77;;
66761;SDS011;53672;48.176;16.338;2023-03-14T04:36:21;9.55;;;4.65;;
66761;SDS011;53672;48.176;16.338;2023-03-14T04:41:21;9.73;;;4.83;;
66761;SDS011;53672;48.176;16.338;2023-03-14T04:46:23;9.43;;;4.40;;
66761;SDS011;53672;48.176;16.338;2023-03-14T04:51:24;9.40;;;4.50;;
66761;SDS011;53672;48.176;16.338;2023-03-14T04:56:24;8.03;;;4.00;;
66761;SDS011;53672;48.176;16.338;2023-03-14T05:01:26;9.57;;;4.00;;
66761;SDS011;53672;48.176;16.338;2023-03-14T05:06:27;8.20;;;3.72;;
66761;SDS011;53672;48.176;16.338;2023-03-14T05:11:27;10.40;;;3.60;;
66761;SDS011;53672;48.176;16.338;2023-03-14T05:16:29;7.60;;;3.47;;
66761;SDS011;53672;48.176;16.338;2023-03-14T05:21:30;8.50;;;3.70;;
66761;SDS011;53672;48.176;16.338;2023-03-14T05:26:30;7.45;;;3.40;;
66761;SDS011;53672;48.176;16.338;2023-03-14T05:31:32;10.17;;;4.13;;
66761;SDS011;53672;48.176;16.338;2023-03-14T05:36:32;8.03;;;4.40;;
66761;SDS011;53672;48.176;16.338;2023-03-14T05:41:33;7.70;;;3.90;;
66761;SDS011;53672;48.176;16.338;2023-03-14T05:46:35;9.73;;;4.22;;
66761;SDS011;53672;48.176;16.338;2023-03-14T05:51:35;9.40;;;4.50;;
66761;SDS011;53672;48.176;16.338;2023-03-14T05:56:36;11.80;;;5.00;;
66761;SDS011;53672;48.176;16.338;2023-03-14T06:01:38;10.97;;;4.73;;
66761;SDS011;53672;48.176;16.338;2023-03-14T06:06:38;10.85;;;4.63;;
66761;SDS011;53672;48.176;16.338;2023-03-14T06:11:39;12.73;;;5.43;;
66761;SDS011;53672;48.176;16.338;2023-03-14T06:16:41;9.23;;;4.40;;
66761;SDS011;53672;48.176;16.338;2023-03-14T06:21:41;9.55;;;4.78;;
66761;SDS011;53672;48.176;16.338;2023-03-14T06:26:42;10.80;;;4.90;;
66761;SDS011;53672;48.176;16.338;2023-03-14T06:31:44;10.03;;;4.87;;
66761;SDS011;53672;48.176;16.338;2023-03-14T06:36:44;12.63;;;5.47;;
66761;SDS011;53672;48.176;16.338;2023-03-14T06:41:45;12.27;;;5.43;;
66761;SDS011;53672;48.176;16.338;2023-03-14T06:46:47;12.60;;;5.37;;
66761;SDS011;53672;48.176;16.338;2023-03-14T06:51:48;11.45;;;5.57;;
66761;SDS011;53672;48.176;16.338;2023-03-14T06:56:48;13.50;;;4.77;;
66761;SDS011;53672;48.176;16.338;2023-03-14T07:01:50;13.70;;;5.10;;
66761;SDS011;53672;48.176;16.338;2023-03-14T07:06:50;10.73;;;5.40;;
66761;SDS011;53672;48.176;16.338;2023-03-14T07:11:51;12.00;;;5.10;;
66761;SDS011;53672;48.176;16.338;2023-03-14T07:16:53;14.73;;;5.47;;
66761;SDS011;53672;48.176;16.338;2023-03-14T07:21:53;11.90;;;4.95;;
66761;SDS011;53672;48.176;16.338;2023-03-14T07:26:54;13.10;;;5.63;;
66761;SDS011;53672;48.176;16.338;2023-03-14T07:31:56;17.10;;;6.43;;
66761;SDS011;53672;48.176;16.338;2023-03-14T07:36:56;10.35;;;4.78;;
66761;SDS011;53672;48.176;16.338;2023-03-14T07:41:57;13.03;;;4.53;;
66761;SDS011;53672;48.176;16.338;2023-03-14T07:46:58;9.43;;;3.63;;
66761;SDS011;53672;48.176;16.338;2023-03-14T07:51:59;7.45;;;3.63;;
66761;SDS011;53672;48.176;16.338;2023-03-14T07:57:00;10.40;;;2.87;;
66761;SDS011;53672;48.176;16.338;2023-03-14T08:02:02;5.83;;;2.60;;
66761;SDS011;53672;48.176;16.338;2023-03-14T08:07:02;9.43;;;2.28;;
66761;SDS011;53672;48.176;16.338;2023-03-14T08:12:03;6.87;;;1.73;;
66761;SDS011;53672;48.176;16.338;2023-03-14T08:17:05;7.00;;;1.60;;
66761;SDS011;53672;48.176;16.338;2023-03-14T08:22:05;4.78;;;1.10;;
66761;SDS011;53672;48.176;16.338;2023-03-14T08:27:06;2.40;;;0.57;;
66761;SDS011;53672;48.176;16.338;2023-03-14T08:32:08;2.30;;;0.70;;
66761;SDS011;53672;48.176;16.338;2023-03-14T08:37:08;6.93;;;1.02;;
66761;SDS011;53672;48.176;16.338;2023-03-14T08:42:09;3.17;;;0.60;;
66761;SDS011;53672;48.176;16.338;2023-03-14T08:47:11;2.73;;;0.80;;
66761;SDS011;53672;48.176;16.338;2023-03-14T08:52:11;3.53;;;0.90;;
66761;SDS011;53672;48.176;16.338;2023-03-14T08:57:12;2.80;;;0.73;;
66761;SDS011;53672;48.176;16.338;2023-03-14T09:02:14;3.10;;;1.20;;
66761;SDS011;53672;48.176;16.338;2023-03-14T09:07:14;5.57;;;1.40;;
66761;SDS011;53672;48.176;16.338;2023-03-14T09:12:15;4.60;;;1.80;;
66761;SDS011;53672;48.176;16.338;2023-03-14T09:17:17;8.97;;;1.97;;
66761;SDS011;53672;48.176;16.338;2023-03-14T09:22:17;5.85;;;2.13;;
66761;SDS011;53672;48.176;16.338;2023-03-14T09:27:17;4.90;;;2.07;;
66761;SDS011;53672;48.176;16.338;2023-03-14T09:32:19;6.20;;;1.90;;
66761;SDS011;53672;48.176;16.338;2023-03-14T09:37:20;5.78;;;1.80;;
66761;SDS011;53672;48.176;16.338;2023-03-14T09:42:21;6.50;;;2.40;;
66761;SDS011;53672;48.176;16.338;2023-03-14T09:47:26;8.82;;;2.47;;
66761;SDS011;53672;48.176;16.338;2023-03-14T09:52:28;8.00;;;2.35;;
66761;SDS011;53672;48.176;16.338;2023-03-14T09:57:32;8.77;;;3.00;;
66761;SDS011;53672;48.176;16.338;2023-03-14T10:02:36;5.30;;;2.70;;
66761;SDS011;53672;48.176;16.338;2023-03-14T10:07:37;7.15;;;3.00;;
66761;SDS011;53672;48.176;16.338;2023-03-14T10:12:37;6.93;;;2.50;;
66761;SDS011;53672;48.176;16.338;2023-03-14T10:17:40;9.03;;;3.00;;
66761;SDS011;53672;48.176;16.338;2023-03-14T10:22:43;9.02;;;3.25;;
66761;SDS011;53672;48.176;16.338;2023-03-14T10:27:44;6.80;;;3.20;;
66761;SDS011;53672;48.176;16.338;2023-03-14T10:32:46;8.23;;;3.00;;
66761;SDS011;53672;48.176;16.338;2023-03-14T10:37:53;5.10;;;2.03;;
66761;SDS011;53672;48.176;16.338;2023-03-14T10:42:57;4.35;;;1.08;;
66761;SDS011;53672;48.176;16.338;2023-03-14T10:48:05;3.53;;;0.85;;
66761;SDS011;53672;48.176;16.338;2023-03-14T10:53:16;3.10;;;0.70;;
66761;SDS011;53672;48.176;16.338;2023-03-14T10:58:22;2.58;;;0.70;;
66761;SDS011;53672;48.176;16.338;2023-03-14T11:03:25;2.53;;;0.50;;
66761;SDS011;53672;48.176;16.338;2023-03-14T11:08:30;2.83;;;0.80;;
66761;SDS011;53672;48.176;16.338;2023-03-14T11:13:36;2.83;;;0.50;;
66761;SDS011;53672;48.176;16.338;2023-03-14T11:19:00;2.30;;;0.60;;
66761;SDS011;53672;48.176;16.338;2023-03-14T11:24:20;1.70;;;0.50;;
66761;SDS011;53672;48.176;16.338;2023-03-14T11:29:33;3.75;;;1.00;;
66761;SDS011;53672;48.176;16.338;2023-03-14T11:34:42;2.88;;;0.70;;
66761;SDS011;53672;48.176;16.338;2023-03-14T11:39:51;6.75;;;0.77;;
66761;SDS011;53672;48.176;16.338;2023-03-14T11:44:59;2.27;;;0.50;;
66761;SDS011;53672;48.176;16.338;2023-03-14T11:50:03;2.33;;;0.50;;
66761;SDS011;53672;48.176;16.338;2023-03-14T11:55:13;2.75;;;0.60;;
66761;SDS011;53672;48.176;16.338;2023-03-14T12:00:19;4.20;;;0.70;;
66761;SDS011;53672;48.176;16.338;2023-03-14T12:05:31;3.00;;;0.50;;
66761;SDS011;53672;48.176;16.338;2023-03-14T12:10:39;2.70;;;1.07;;
66761;SDS011;53672;48.176;16.338;2023-03-14T12:15:46;3.15;;;0.50;;
66761;SDS011;53672;48.176;16.338;2023-03-14T12:20:52;2.83;;;0.50;;
66761;SDS011;53672;48.176;16.338;2023-03-14T12:36:51;4.93;;;0.70;;
66761;SDS011;53672;48.176;16.338;2023-03-14T12:42:01;2.08;;;0.60;;
66761;SDS011;53672;48.176;16.338;2023-03-14T12:47:14;4.63;;;0.60;;
66761;SDS011;53672;48.176;16.338;2023-03-14T12:52:57;2.53;;;0.60;;
66761;SDS011;53672;48.176;16.338;2023-03-14T12:58:12;3.20;;;0.60;;
66761;SDS011;53672;48.176;16.338;2023-03-14T13:03:18;4.10;;;1.53;;
66761;SDS011;53672;48.176;16.338;2023-03-14T13:08:36;4.45;;;0.70;;
66761;SDS011;53672;48.176;16.338;2023-03-14T13:13:41;2.30;;;0.60;;
66761;SDS011;53672;48.176;16.338;2023-03-14T13:18:46;2.45;;;0.60;;
66761;SDS011;53672;48.176;16.338;2023-03-14T13:23:56;3.78;;;0.60;;
66761;SDS011;53672;48.176;16.338;2023-03-14T13:28:58;2.43;;;0.50;;
66761;SDS011;53672;48.176;16.338;2023-03-14T13:33:59;2.70;;;0.50;;
66761;SDS011;53672;48.176;16.338;2023-03-14T13:39:02;2.28;;;0.57;;
66761;SDS011;53672;48.176;16.338;2023-03-14T13:44:05;2.30;;;0.50;;
66761;SDS011;53672;48.176;16.338;2023-03-14T13:49:09;2.87;;;0.40;;
66761;SDS011;53672;48.176;16.338;2023-03-14T13:54:14;2.25;;;0.50;;
66761;SDS011;53672;48.176;16.338;2023-03-14T13:59:22;2.43;;;0.40;;
66761;SDS011;53672;48.176;16.338;2023-03-14T14:04:24;2.83;;;0.50;;
66761;SDS011;53672;48.176;16.338;2023-03-14T14:09:27;2.40;;;0.50;;
66761;SDS011;53672;48.176;16.338;2023-03-14T14:14:30;3.23;;;0.50;;
66761;SDS011;53672;48.176;16.338;2023-03-14T14:19:34;2.40;;;0.60;;
66761;SDS011;53672;48.176;16.338;2023-03-14T14:24:38;2.00;;;0.60;;
66761;SDS011;53672;48.176;16.338;2023-03-14T14:29:39;2.85;;;0.50;;
66761;SDS011;53672;48.176;16.338;2023-03-14T14:34:40;2.92;;;0.73;;
66761;SDS011;53672;48.176;16.338;2023-03-14T14:39:43;2.08;;;0.60;;
66761;SDS011;53672;48.176;16.338;2023-03-14T14:44:44;1.70;;;0.47;;
66761;SDS011;53672;48.176;16.338;2023-03-14T14:49:45;2.40;;;0.60;;
66761;SDS011;53672;48.176;16.338;2023-03-14T14:54:51;2.97;;;0.80;;
66761;SDS011;53672;48.176;16.338;2023-03-14T14:59:54;2.13;;;0.57;;
66761;SDS011;53672;48.176;16.338;2023-03-14T15:04:56;2.90;;;0.57;;
66761;SDS011;53672;48.176;16.338;2023-03-14T15:09:58;2.17;;;0.50;;
66761;SDS011;53672;48.176;16.338;2023-03-14T15:14:58;2.13;;;0.40;;
66761;SDS011;53672;48.176;16.338;2023-03-14T15:19:59;3.13;;;0.70;;
66761;SDS011;53672;48.176;16.338;2023-03-14T15:25:01;3.40;;;0.70;;
66761;SDS011;53672;48.176;16.338;2023-03-14T15:30:01;2.40;;;0.60;;
66761;SDS011;53672;48.176;16.338;2023-03-14T15:35:02;3.20;;;0.70;;
66761;SDS011;53672;48.176;16.338;2023-03-14T15:40:05;3.33;;;0.82;;
66761;SDS011;53672;48.176;16.338;2023-03-14T15:45:06;2.60;;;0.60;;
66761;SDS011;53672;48.176;16.338;2023-03-14T15:50:08;4.15;;;1.00;;
66761;SDS011;53672;48.176;16.338;2023-03-14T15:55:11;3.30;;;0.60;;
66761;SDS011;53672;48.176;16.338;2023-03-14T16:00:11;3.15;;;0.77;;
66761;SDS011;53672;48.176;16.338;2023-03-14T16:05:13;3.65;;;1.00;;
66761;SDS011;53672;48.176;16.338;2023-03-14T16:10:16;4.63;;;1.00;;
66761;SDS011;53672;48.176;16.338;2023-03-14T16:15:16;5.68;;;1.02;;
66761;SDS011;53672;48.176;16.338;2023-03-14T16:20:17;3.60;;;1.10;;
66761;SDS011;53672;48.176;16.338;2023-03-14T16:25:19;4.23;;;1.00;;
66761;SDS011;53672;48.176;16.338;2023-03-14T16:30:20;4.55;;;1.20;;
66761;SDS011;53672;48.176;16.338;2023-03-14T16:35:20;4.50;;;1.50;;
66761;SDS011;53672;48.176;16.338;2023-03-14T16:40:23;4.53;;;1.23;;
66761;SDS011;53672;48.176;16.338;2023-03-14T16:45:23;6.43;;;1.47;;
66761;SDS011;53672;48.176;16.338;2023-03-14T16:50:24;5.37;;;1.73;;
66761;SDS011;53672;48.176;16.338;2023-03-14T16:55:26;5.20;;;1.40;;
66761;SDS011;53672;48.176;16.338;2023-03-14T17:00:26;5.03;;;1.60;;
66761;SDS011;53672;48.176;16.338;2023-03-14T17:05:27;4.80;;;1.65;;
66761;SDS011;53672;48.176;16.338;2023-03-14T17:10:29;4.07;;;1.63;;
66761;SDS011;53672;48.176;16.338;2023-03-14T17:15:30;6.00;;;2.03;;
66761;SDS011;53672;48.176;16.338;2023-03-14T17:20:31;5.47;;;1.60;;
66761;SDS011;53672;48.176;16.338;2023-03-14T17:25:33;7.30;;;2.28;;
66761;SDS011;53672;48.176;16.338;2023-03-14T17:30:34;6.03;;;1.90;;
66761;SDS011;53672;48.176;16.338;2023-03-14T17:35:36;6.32;;;2.00;;
66761;SDS011;53672;48.176;16.338;2023-03-14T17:40:38;7.00;;;2.57;;
66761;SDS011;53672;48.176;16.338;2023-03-14T17:45:39;7.25;;;2.25;;
66761;SDS011;53672;48.176;16.338;2023-03-14T17:50:39;4.87;;;2.03;;
66761;SDS011;53672;48.176;16.338;2023-03-14T17:55:42;6.73;;;2.67;;
66761;SDS011;53672;48.176;16.338;2023-03-14T18:00:43;7.35;;;2.75;;
66761;SDS011;53672;48.176;16.338;2023-03-14T18:05:44;9.07;;;3.22;;
66761;SDS011;53672;48.176;16.338;2023-03-14T18:10:51;7.78;;;3.10;;
66761;SDS011;53672;48.176;16.338;2023-03-14T18:15:53;9.25;;;3.42;;
66761;SDS011;53672;48.176;16.338;2023-03-14T18:20:54;10.90;;;3.70;;
66761;SDS011;53672;48.176;16.338;2023-03-14T18:25:58;8.95;;;3.45;;
66761;SDS011;53672;48.176;16.338;2023-03-14T18:31:00;10.40;;;4.13;;
66761;SDS011;53672;48.176;16.338;2023-03-14T18:36:01;11.52;;;4.10;;
66761;SDS011;53672;48.176;16.338;2023-03-14T18:41:04;11.63;;;3.63;;
66761;SDS011;53672;48.176;16.338;2023-03-14T18:46:07;7.70;;;2.40;;
66761;SDS011;53672;48.176;16.338;2023-03-14T18:51:08;4.25;;;1.17;;
66761;SDS011;53672;48.176;16.338;2023-03-14T18:56:12;2.43;;;0.53;;
66761;SDS011;53672;48.176;16.338;2023-03-14T19:01:13;2.03;;;0.40;;
66761;SDS011;53672;48.176;16.338;2023-03-14T19:06:16;1.92;;;0.60;;
66761;SDS011;53672;48.176;16.338;2023-03-14T19:11:20;2.20;;;0.70;;
66761;SDS011;53672;48.176;16.338;2023-03-14T19:16:21;2.13;;;0.50;;
66761;SDS011;53672;48.176;16.338;2023-03-14T19:21:25;2.53;;;0.70;;
66761;SDS011;53672;48.176;16.338;2023-03-14T19:26:28;2.58;;;0.80;;
66761;SDS011;53672;48.176;16.338;2023-03-14T19:31:30;3.00;;;1.00;;
66761;SDS011;53672;48.176;16.338;2023-03-14T19:36:32;3.65;;;0.90;;
66761;SDS011;53672;48.176;16.338;2023-03-14T19:41:45;3.05;;;0.73;;
66761;SDS011;53672;48.176;16.338;2023-03-14T19:46:46;12.53;;;3.23;;
66761;SDS011;53672;48.176;16.338;2023-03-14T19:51:48;3.47;;;0.90;;
66761;SDS011;53672;48.176;16.338;2023-03-14T19:56:51;3.22;;;0.70;;
66761;SDS011;53672;48.176;16.338;2023-03-14T20:01:52;2.85;;;0.82;;
66761;SDS011;53672;48.176;16.338;2023-03-14T20:06:54;2.92;;;0.82;;
66761;SDS011;53672;48.176;16.338;2023-03-14T20:11:57;4.17;;;0.90;;
66761;SDS011;53672;48.176;16.338;2023-03-14T20:16:58;2.55;;;0.63;;
66761;SDS011;53672;48.176;16.338;2023-03-14T20:22:00;2.30;;;0.60;;
66761;SDS011;53672;48.176;16.338;2023-03-14T20:27:03;2.00;;;0.60;;
66761;SDS011;53672;48.176;16.338;2023-03-14T20:32:05;3.92;;;0.70;;
66761;SDS011;53672;48.176;16.338;2023-03-14T20:37:06;3.70;;;0.80;;
66761;SDS011;53672;48.176;16.338;2023-03-14T20:42:09;2.42;;;0.70;;
66761;SDS011;53672;48.176;16.338;2023-03-14T20:47:11;3.13;;;0.80;;
66761;SDS011;53672;48.176;16.338;2023-03-14T20:52:13;2.97;;;0.90;;
66761;SDS011;53672;48.176;16.338;2023-03-14T20:57:15;3.65;;;1.10;;
66761;SDS011;53672;48.176;16.338;2023-03-14T21:02:17;2.40;;;0.60;;
66761;SDS011;53672;48.176;16.338;2023-03-14T21:07:18;2.10;;;0.60;;
66761;SDS011;53672;48.176;16.338;2023-03-14T21:12:21;2.33;;;0.60;;
66761;SDS011;53672;48.176;16.338;2023-03-14T21:17:22;3.00;;;0.65;;
66761;SDS011;53672;48.176;16.338;2023-03-14T21:22:23;3.00;;;0.60;;
66761;SDS011;53672;48.176;16.338;2023-03-14T21:27:26;2.50;;;0.60;;
66761;SDS011;53672;48.176;16.338;2023-03-14T21:32:27;2.70;;;0.60;;
66761;SDS011;53672;48.176;16.338;2023-03-14T21:37:28;2.53;;;0.80;;
66761;SDS011;53672;48.176;16.338;2023-03-14T21:42:31;2.80;;;0.75;;
66761;SDS011;53672;48.176;16.338;2023-03-14T21:47:32;3.70;;;0.70;;
66761;SDS011;53672;48.176;16.338;2023-03-14T21:52:32;2.58;;;0.73;;
66761;SDS011;53672;48.176;16.338;2023-03-14T21:57:35;2.83;;;0.70;;
66761;SDS011;53672;48.176;16.338;2023-03-14T22:02:35;4.93;;;0.90;;
66761;SDS011;53672;48.176;16.338;2023-03-14T22:07:36;4.27;;;0.80;;
66761;SDS011;53672;48.176;16.338;2023-03-14T22:12:38;2.13;;;0.50;;
66761;SDS011;53672;48.176;16.338;2023-03-14T22:17:39;4.65;;;0.70;;
66761;SDS011;53672;48.176;16.338;2023-03-14T22:22:39;3.03;;;0.80;;
66761;SDS011;53672;48.176;16.338;2023-03-14T22:27:41;3.73;;;0.57;;
66761;SDS011;53672;48.176;16.338;2023-03-14T22:32:42;3.87;;;0.70;;
66761;SDS011;53672;48.176;16.338;2023-03-14T22:37:42;2.30;;;0.60;;
66761;SDS011;53672;48.176;16.338;2023-03-14T22:42:44;4.80;;;1.10;;
66761;SDS011;53672;48.176;16.338;2023-03-14T22:47:45;3.57;;;0.70;;
66761;SDS011;53672;48.176;16.338;2023-03-14T22:52:45;3.83;;;0.80;;
66761;SDS011;53672;48.176;16.338;2023-03-14T22:57:50;4.25;;;0.70;;
66761;SDS011;53672;48.176;16.338;2023-03-14T23:02:51;3.97;;;0.70;;
66761;SDS011;53672;48.176;16.338;2023-03-14T23:07:52;3.50;;;0.80;;
66761;SDS011;53672;48.176;16.338;2023-03-14T23:12:54;4.18;;;1.23;;
66761;SDS011;53672;48.176;16.338;2023-03-14T23:17:55;2.70;;;0.80;;
66761;SDS011;53672;48.176;16.338;2023-03-14T23:22:55;3.55;;;0.80;;
66761;SDS011;53672;48.176;16.338;2023-03-14T23:27:57;4.70;;;0.90;;
66761;SDS011;53672;48.176;16.338;2023-03-14T23:32:58;2.90;;;0.80;;
66761;SDS011;53672;48.176;16.338;2023-03-14T23:37:58;5.00;;;0.90;;
66761;SDS011;53672;48.176;16.338;2023-03-14T23:43:00;3.75;;;0.85;;
66761;SDS011;53672;48.176;16.338;2023-03-14T23:48:00;3.92;;;0.90;;
66761;SDS011;53672;48.176;16.338;2023-03-14T23:53:01;2.90;;;0.80;;
66761;SDS011;53672;48.176;16.338;2023-03-14T23:58:03;2.70;;;0.80;;
